sensor_id;sensor_type;location;lat;lon;timestamp;temperature;humidity
52189;DHT22;38162;45.926;13.608;2024-03-23T00:57:20;13.50;99.90
52189;DHT22;38162;45.926;13.608;2024-03-23T01:00:33;13.50;99.90
52189;DHT22;38162;45.926;13.608;2024-03-23T01:03:17;13.50;99.90
52189;DHT22;38162;45.926;13.608;2024-03-23T01:06:07;13.40;99.90
52189;DHT22;38162;45.926;13.608;2024-03-23T01:09:06;13.30;99.90
52189;DHT22;38162;45.926;13.608;2024-03-23T01:11:34;13.20;99.90
52189;DHT22;38162;45.926;13.608;2024-03-23T01:14:00;13.20;99.90
52189;DHT22;38162;45.926;13.608;2024-03-23T01:16:26;13.20;99.90
52189;DHT22;38162;45.926;13.608;2024-03-23T01:18:52;13.20;99.90
52189;DHT22;38162;45.926;13.608;2024-03-23T01:21:18;13.30;99.90
52189;DHT22;38162;45.926;13.608;2024-03-23T01:23:43;13.30;99.90
52189;DHT22;38162;45.926;13.608;2024-03-23T01:26:09;13.20;99.90
52189;DHT22;38162;45.926;13.608;2024-03-23T01:28:35;13.20;99.90
52189;DHT22;38162;45.926;13.608;2024-03-23T01:31:00;13.20;99.90
52189;DHT22;38162;45.926;13.608;2024-03-23T01:33:26;13.20;99.90
52189;DHT22;38162;45.926;13.608;2024-03-23T01:35:52;13.20;99.90
52189;DHT22;38162;45.926;13.608;2024-03-23T01:38:18;13.10;99.90
52189;DHT22;38162;45.926;13.608;2024-03-23T01:40:43;13.10;99.90
52189;DHT22;38162;45.926;13.608;2024-03-23T01:43:09;13.10;99.90
52189;DHT22;38162;45.926;13.608;2024-03-23T01:45:35;13.10;99.90
52189;DHT22;38162;45.926;13.608;2024-03-23T01:48:01;13.00;99.90
52189;DHT22;38162;45.926;13.608;2024-03-23T01:50:28;13.00;99.90
52189;DHT22;38162;45.926;13.608;2024-03-23T01:52:59;12.90;99.90
52189;DHT22;38162;45.926;13.608;2024-03-23T01:55:25;12.90;99.90
52189;DHT22;38162;45.926;13.608;2024-03-23T01:57:51;12.90;99.90
52189;DHT22;38162;45.926;13.608;2024-03-23T02:00:17;12.80;99.90
52189;DHT22;38162;45.926;13.608;2024-03-23T02:02:46;12.80;99.90
52189;DHT22;38162;45.926;13.608;2024-03-23T02:05:12;12.80;99.90
52189;DHT22;38162;45.926;13.608;2024-03-23T02:07:42;12.70;99.90
52189;DHT22;38162;45.926;13.608;2024-03-23T02:10:11;12.70;99.90
52189;DHT22;38162;45.926;13.608;2024-03-23T02:12:39;12.70;99.90
52189;DHT22;38162;45.926;13.608;2024-03-23T02:15:05;12.60;99.90
52189;DHT22;38162;45.926;13.608;2024-03-23T02:17:33;12.60;99.90
52189;DHT22;38162;45.926;13.608;2024-03-23T02:20:02;12.70;99.90
52189;DHT22;38162;45.926;13.608;2024-03-23T02:22:39;12.60;99.90
52189;DHT22;38162;45.926;13.608;2024-03-23T02:29:04;12.60;99.90
52189;DHT22;38162;45.926;13.608;2024-03-23T02:35:40;12.50;99.90
52189;DHT22;38162;45.926;13.608;2024-03-23T02:38:37;12.50;99.80
52189;DHT22;38162;45.926;13.608;2024-03-23T02:42:06;12.40;99.30
52189;DHT22;38162;45.926;13.608;2024-03-23T02:44:51;12.30;99.60
52189;DHT22;38162;45.926;13.608;2024-03-23T02:50:50;12.10;99.90
52189;DHT22;38162;45.926;13.608;2024-03-23T02:53:16;12.00;99.90
52189;DHT22;38162;45.926;13.608;2024-03-23T02:55:43;11.90;99.90
52189;DHT22;38162;45.926;13.608;2024-03-23T02:58:08;11.90;99.90
52189;DHT22;38162;45.926;13.608;2024-03-23T03:00:34;11.90;99.90
52189;DHT22;38162;45.926;13.608;2024-03-23T03:03:00;11.80;99.90
52189;DHT22;38162;45.926;13.608;2024-03-23T03:05:26;11.70;99.90
52189;DHT22;38162;45.926;13.608;2024-03-23T03:07:51;11.70;99.90
52189;DHT22;38162;45.926;13.608;2024-03-23T03:10:17;11.70;99.90
52189;DHT22;38162;45.926;13.608;2024-03-23T03:12:43;11.70;99.90
52189;DHT22;38162;45.926;13.608;2024-03-23T03:15:09;11.60;99.90
52189;DHT22;38162;45.926;13.608;2024-03-23T03:17:35;11.70;99.90
52189;DHT22;38162;45.926;13.608;2024-03-23T03:20:00;11.60;99.90
52189;DHT22;38162;45.926;13.608;2024-03-23T03:22:26;11.50;99.90
52189;DHT22;38162;45.926;13.608;2024-03-23T03:24:52;11.50;99.90
52189;DHT22;38162;45.926;13.608;2024-03-23T03:27:18;11.50;99.90
52189;DHT22;38162;45.926;13.608;2024-03-23T03:29:43;11.50;99.90
52189;DHT22;38162;45.926;13.608;2024-03-23T03:32:09;11.50;99.90
52189;DHT22;38162;45.926;13.608;2024-03-23T03:34:35;11.50;99.90
52189;DHT22;38162;45.926;13.608;2024-03-23T03:37:00;11.50;99.90
52189;DHT22;38162;45.926;13.608;2024-03-23T03:39:26;11.40;99.90
52189;DHT22;38162;45.926;13.608;2024-03-23T03:41:52;11.40;99.90
52189;DHT22;38162;45.926;13.608;2024-03-23T03:44:18;11.40;99.90
52189;DHT22;38162;45.926;13.608;2024-03-23T03:46:44;11.30;99.90
52189;DHT22;38162;45.926;13.608;2024-03-23T03:49:09;11.30;99.90
52189;DHT22;38162;45.926;13.608;2024-03-23T03:51:35;11.30;99.90
52189;DHT22;38162;45.926;13.608;2024-03-23T03:54:01;11.30;99.90
52189;DHT22;38162;45.926;13.608;2024-03-23T03:56:28;11.30;99.90
52189;DHT22;38162;45.926;13.608;2024-03-23T03:58:53;11.20;99.90
52189;DHT22;38162;45.926;13.608;2024-03-23T04:01:19;11.20;99.90
52189;DHT22;38162;45.926;13.608;2024-03-23T04:11:41;11.20;99.90
52189;DHT22;38162;45.926;13.608;2024-03-23T04:17:45;11.20;99.90
52189;DHT22;38162;45.926;13.608;2024-03-23T04:20:11;11.20;99.90
52189;DHT22;38162;45.926;13.608;2024-03-23T04:22:58;11.20;99.90
52189;DHT22;38162;45.926;13.608;2024-03-23T04:25:39;11.20;99.90
52189;DHT22;38162;45.926;13.608;2024-03-23T04:28:31;11.10;99.90
52189;DHT22;38162;45.926;13.608;2024-03-23T04:31:20;11.10;99.90
52189;DHT22;38162;45.926;13.608;2024-03-23T04:33:47;11.10;99.90
52189;DHT22;38162;45.926;13.608;2024-03-23T04:36:13;11.10;99.90
52189;DHT22;38162;45.926;13.608;2024-03-23T04:38:39;11.10;99.90
52189;DHT22;38162;45.926;13.608;2024-03-23T04:41:05;11.00;99.90
52189;DHT22;38162;45.926;13.608;2024-03-23T04:43:31;11.00;99.90
52189;DHT22;38162;45.926;13.608;2024-03-23T04:45:56;11.00;99.90
52189;DHT22;38162;45.926;13.608;2024-03-23T04:48:23;11.00;99.90
52189;DHT22;38162;45.926;13.608;2024-03-23T04:50:49;11.00;99.90
52189;DHT22;38162;45.926;13.608;2024-03-23T04:53:16;11.00;99.90
52189;DHT22;38162;45.926;13.608;2024-03-23T04:55:42;10.90;99.90
52189;DHT22;38162;45.926;13.608;2024-03-23T04:58:08;10.90;99.90
52189;DHT22;38162;45.926;13.608;2024-03-23T05:00:34;10.90;99.90
52189;DHT22;38162;45.926;13.608;2024-03-23T05:03:00;10.80;99.90
52189;DHT22;38162;45.926;13.608;2024-03-23T05:05:25;10.80;99.90
52189;DHT22;38162;45.926;13.608;2024-03-23T05:07:51;10.70;99.90
52189;DHT22;38162;45.926;13.608;2024-03-23T05:10:17;10.70;99.90
52189;DHT22;38162;45.926;13.608;2024-03-23T05:12:43;10.70;99.90
52189;DHT22;38162;45.926;13.608;2024-03-23T05:15:10;10.70;99.90
52189;DHT22;38162;45.926;13.608;2024-03-23T05:17:36;10.60;99.90
52189;DHT22;38162;45.926;13.608;2024-03-23T05:20:03;10.50;99.90
52189;DHT22;38162;45.926;13.608;2024-03-23T05:22:29;10.50;99.90
52189;DHT22;38162;45.926;13.608;2024-03-23T05:24:56;10.50;99.90
52189;DHT22;38162;45.926;13.608;2024-03-23T05:27:22;10.40;99.90
52189;DHT22;38162;45.926;13.608;2024-03-23T05:29:48;10.40;99.90
52189;DHT22;38162;45.926;13.608;2024-03-23T05:32:14;10.40;99.90
52189;DHT22;38162;45.926;13.608;2024-03-23T05:34:40;10.40;99.90
52189;DHT22;38162;45.926;13.608;2024-03-23T05:37:06;10.40;99.90
52189;DHT22;38162;45.926;13.608;2024-03-23T05:39:31;10.40;99.90
52189;DHT22;38162;45.926;13.608;2024-03-23T05:41:57;10.40;99.90
52189;DHT22;38162;45.926;13.608;2024-03-23T05:44:46;10.50;99.90
52189;DHT22;38162;45.926;13.608;2024-03-23T05:51:31;10.50;99.90
52189;DHT22;38162;45.926;13.608;2024-03-23T06:01:17;10.70;99.90
52189;DHT22;38162;45.926;13.608;2024-03-23T06:04:21;10.70;99.90
52189;DHT22;38162;45.926;13.608;2024-03-23T06:07:31;10.80;99.90
52189;DHT22;38162;45.926;13.608;2024-03-23T06:10:16;10.90;99.90
52189;DHT22;38162;45.926;13.608;2024-03-23T06:13:11;10.90;99.90
52189;DHT22;38162;45.926;13.608;2024-03-23T06:15:37;11.00;99.90
52189;DHT22;38162;45.926;13.608;2024-03-23T06:18:04;11.00;99.90
52189;DHT22;38162;45.926;13.608;2024-03-23T06:20:30;11.10;99.90
52189;DHT22;38162;45.926;13.608;2024-03-23T06:22:57;11.20;99.90
52189;DHT22;38162;45.926;13.608;2024-03-23T06:25:23;11.20;99.90
52189;DHT22;38162;45.926;13.608;2024-03-23T06:27:48;11.30;99.90
52189;DHT22;38162;45.926;13.608;2024-03-23T06:30:14;11.30;99.90
52189;DHT22;38162;45.926;13.608;2024-03-23T06:32:40;11.40;99.90
52189;DHT22;38162;45.926;13.608;2024-03-23T06:35:06;11.40;99.90
52189;DHT22;38162;45.926;13.608;2024-03-23T06:37:35;11.50;99.90
52189;DHT22;38162;45.926;13.608;2024-03-23T06:40:01;11.60;99.90
52189;DHT22;38162;45.926;13.608;2024-03-23T06:42:27;11.70;99.90
52189;DHT22;38162;45.926;13.608;2024-03-23T06:44:53;11.80;99.90
52189;DHT22;38162;45.926;13.608;2024-03-23T06:47:19;11.90;99.90
52189;DHT22;38162;45.926;13.608;2024-03-23T06:49:45;12.00;99.90
52189;DHT22;38162;45.926;13.608;2024-03-23T06:52:10;12.10;99.90
52189;DHT22;38162;45.926;13.608;2024-03-23T06:54:36;12.20;99.90
52189;DHT22;38162;45.926;13.608;2024-03-23T06:57:02;12.30;99.90
52189;DHT22;38162;45.926;13.608;2024-03-23T06:59:28;12.40;99.90
52189;DHT22;38162;45.926;13.608;2024-03-23T07:01:54;12.50;99.90
52189;DHT22;38162;45.926;13.608;2024-03-23T07:04:19;12.60;99.90
52189;DHT22;38162;45.926;13.608;2024-03-23T07:06:45;12.70;99.90
52189;DHT22;38162;45.926;13.608;2024-03-23T07:09:11;12.70;99.90
52189;DHT22;38162;45.926;13.608;2024-03-23T07:11:38;12.70;99.90
52189;DHT22;38162;45.926;13.608;2024-03-23T07:14:04;12.80;99.90
52189;DHT22;38162;45.926;13.608;2024-03-23T07:16:30;12.80;99.90
52189;DHT22;38162;45.926;13.608;2024-03-23T07:18:56;12.80;99.90
52189;DHT22;38162;45.926;13.608;2024-03-23T07:21:22;12.80;99.90
52189;DHT22;38162;45.926;13.608;2024-03-23T07:23:48;12.90;99.90
52189;DHT22;38162;45.926;13.608;2024-03-23T07:26:14;12.90;99.90
52189;DHT22;38162;45.926;13.608;2024-03-23T07:35:49;13.10;99.90
52189;DHT22;38162;45.926;13.608;2024-03-23T07:42:02;13.20;99.90
52189;DHT22;38162;45.926;13.608;2024-03-23T07:45:26;13.30;99.90
52189;DHT22;38162;45.926;13.608;2024-03-23T07:47:52;13.40;99.90
52189;DHT22;38162;45.926;13.608;2024-03-23T07:50:36;13.50;99.90
52189;DHT22;38162;45.926;13.608;2024-03-23T07:53:04;13.60;99.90
52189;DHT22;38162;45.926;13.608;2024-03-23T07:55:31;13.60;99.70
52189;DHT22;38162;45.926;13.608;2024-03-23T07:57:57;13.70;99.80
52189;DHT22;38162;45.926;13.608;2024-03-23T08:00:23;13.80;99.80
52189;DHT22;38162;45.926;13.608;2024-03-23T08:02:51;13.80;99.60
52189;DHT22;38162;45.926;13.608;2024-03-23T08:05:17;13.90;99.40
52189;DHT22;38162;45.926;13.608;2024-03-23T08:07:42;13.90;99.20
52189;DHT22;38162;45.926;13.608;2024-03-23T08:10:08;14.00;99.30
52189;DHT22;38162;45.926;13.608;2024-03-23T08:12:34;14.10;98.90
52189;DHT22;38162;45.926;13.608;2024-03-23T08:15:00;14.10;98.90
52189;DHT22;38162;45.926;13.608;2024-03-23T08:17:25;14.20;98.80
52189;DHT22;38162;45.926;13.608;2024-03-23T08:19:51;14.20;98.60
52189;DHT22;38162;45.926;13.608;2024-03-23T08:22:18;14.30;99.00
52189;DHT22;38162;45.926;13.608;2024-03-23T08:24:44;14.40;98.70
52189;DHT22;38162;45.926;13.608;2024-03-23T08:27:10;14.40;98.80
52189;DHT22;38162;45.926;13.608;2024-03-23T08:29:36;14.50;99.00
52189;DHT22;38162;45.926;13.608;2024-03-23T08:32:02;14.60;99.30
52189;DHT22;38162;45.926;13.608;2024-03-23T08:34:28;14.60;99.00
52189;DHT22;38162;45.926;13.608;2024-03-23T08:36:53;14.70;99.10
52189;DHT22;38162;45.926;13.608;2024-03-23T08:39:19;14.80;99.50
52189;DHT22;38162;45.926;13.608;2024-03-23T08:41:45;14.80;99.90
52189;DHT22;38162;45.926;13.608;2024-03-23T08:44:11;14.90;99.60
52189;DHT22;38162;45.926;13.608;2024-03-23T08:46:37;15.00;99.50
52189;DHT22;38162;45.926;13.608;2024-03-23T08:49:03;15.00;99.60
52189;DHT22;38162;45.926;13.608;2024-03-23T08:51:29;15.10;99.90
52189;DHT22;38162;45.926;13.608;2024-03-23T08:53:55;15.20;99.90
52189;DHT22;38162;45.926;13.608;2024-03-23T08:56:21;15.30;99.80
52189;DHT22;38162;45.926;13.608;2024-03-23T08:58:46;15.30;99.90
52189;DHT22;38162;45.926;13.608;2024-03-23T09:01:13;15.40;99.90
52189;DHT22;38162;45.926;13.608;2024-03-23T09:03:39;15.50;99.60
52189;DHT22;38162;45.926;13.608;2024-03-23T09:06:10;15.50;99.40
52189;DHT22;38162;45.926;13.608;2024-03-23T09:08:57;15.50;99.80
52189;DHT22;38162;45.926;13.608;2024-03-23T09:12:07;15.60;99.30
52189;DHT22;38162;45.926;13.608;2024-03-23T09:18:21;15.70;97.30
52189;DHT22;38162;45.926;13.608;2024-03-23T09:21:03;15.80;97.30
52189;DHT22;38162;45.926;13.608;2024-03-23T09:27:28;15.80;97.20
52189;DHT22;38162;45.926;13.608;2024-03-23T09:33:42;15.90;96.70
52189;DHT22;38162;45.926;13.608;2024-03-23T09:36:11;15.90;96.80
52189;DHT22;38162;45.926;13.608;2024-03-23T09:38:37;16.00;96.20
52189;DHT22;38162;45.926;13.608;2024-03-23T09:41:07;16.00;96.30
52189;DHT22;38162;45.926;13.608;2024-03-23T09:43:34;16.10;96.80
52189;DHT22;38162;45.926;13.608;2024-03-23T09:46:01;16.10;94.70
52189;DHT22;38162;45.926;13.608;2024-03-23T09:48:28;16.20;94.00
52189;DHT22;38162;45.926;13.608;2024-03-23T09:50:53;16.20;92.50
52189;DHT22;38162;45.926;13.608;2024-03-23T09:53:19;16.20;92.80
52189;DHT22;38162;45.926;13.608;2024-03-23T09:55:45;16.30;92.00
52189;DHT22;38162;45.926;13.608;2024-03-23T09:58:17;16.30;90.40
52189;DHT22;38162;45.926;13.608;2024-03-23T10:00:43;16.30;90.00
52189;DHT22;38162;45.926;13.608;2024-03-23T10:03:09;16.30;88.70
52189;DHT22;38162;45.926;13.608;2024-03-23T10:05:37;16.40;91.00
52189;DHT22;38162;45.926;13.608;2024-03-23T10:10:44;16.50;88.70
52189;DHT22;38162;45.926;13.608;2024-03-23T10:13:10;16.60;88.20
52189;DHT22;38162;45.926;13.608;2024-03-23T10:15:38;16.60;86.00
52189;DHT22;38162;45.926;13.608;2024-03-23T10:18:18;16.70;85.90
52189;DHT22;38162;45.926;13.608;2024-03-23T10:20:50;16.70;87.20
52189;DHT22;38162;45.926;13.608;2024-03-23T10:23:16;16.70;87.40
52189;DHT22;38162;45.926;13.608;2024-03-23T10:25:42;16.80;85.10
52189;DHT22;38162;45.926;13.608;2024-03-23T10:28:08;16.90;82.90
52189;DHT22;38162;45.926;13.608;2024-03-23T10:30:35;16.90;82.60
52189;DHT22;38162;45.926;13.608;2024-03-23T10:33:07;16.90;83.40
52189;DHT22;38162;45.926;13.608;2024-03-23T10:35:33;16.90;82.00
52189;DHT22;38162;45.926;13.608;2024-03-23T10:38:00;16.90;82.30
52189;DHT22;38162;45.926;13.608;2024-03-23T10:40:26;16.90;80.60
52189;DHT22;38162;45.926;13.608;2024-03-23T10:42:53;16.90;80.90
52189;DHT22;38162;45.926;13.608;2024-03-23T10:45:21;16.90;79.60
52189;DHT22;38162;45.926;13.608;2024-03-23T10:48:16;17.00;78.90
52189;DHT22;38162;45.926;13.608;2024-03-23T10:57:38;17.10;76.80
52189;DHT22;38162;45.926;13.608;2024-03-23T11:00:53;17.10;76.60
52189;DHT22;38162;45.926;13.608;2024-03-23T11:03:44;17.20;77.20
52189;DHT22;38162;45.926;13.608;2024-03-23T11:06:59;17.20;75.50
52189;DHT22;38162;45.926;13.608;2024-03-23T11:09:40;17.20;77.60
52189;DHT22;38162;45.926;13.608;2024-03-23T11:15:28;17.40;77.90
52189;DHT22;38162;45.926;13.608;2024-03-23T11:18:04;17.40;77.40
52189;DHT22;38162;45.926;13.608;2024-03-23T11:20:36;17.50;78.30
52189;DHT22;38162;45.926;13.608;2024-03-23T11:23:03;17.50;79.00
52189;DHT22;38162;45.926;13.608;2024-03-23T11:25:30;17.50;79.60
52189;DHT22;38162;45.926;13.608;2024-03-23T11:27:57;17.60;79.60
52189;DHT22;38162;45.926;13.608;2024-03-23T11:30:27;17.70;80.50
52189;DHT22;38162;45.926;13.608;2024-03-23T11:32:57;17.70;79.30
52189;DHT22;38162;45.926;13.608;2024-03-23T11:35:34;17.80;81.70
52189;DHT22;38162;45.926;13.608;2024-03-23T11:38:08;17.80;80.60
52189;DHT22;38162;45.926;13.608;2024-03-23T11:40:36;17.80;82.50
52189;DHT22;38162;45.926;13.608;2024-03-23T11:43:04;17.90;84.20
52189;DHT22;38162;45.926;13.608;2024-03-23T11:45:44;18.00;84.80
52189;DHT22;38162;45.926;13.608;2024-03-23T11:48:11;18.00;83.60
52189;DHT22;38162;45.926;13.608;2024-03-23T11:50:39;18.10;84.30
52189;DHT22;38162;45.926;13.608;2024-03-23T11:53:18;18.10;85.40
52189;DHT22;38162;45.926;13.608;2024-03-23T11:55:56;18.10;86.20
52189;DHT22;38162;45.926;13.608;2024-03-23T11:58:23;18.10;87.10
52189;DHT22;38162;45.926;13.608;2024-03-23T12:03:19;18.20;86.80
52189;DHT22;38162;45.926;13.608;2024-03-23T12:05:52;18.20;88.40
52189;DHT22;38162;45.926;13.608;2024-03-23T12:08:25;18.20;89.10
52189;DHT22;38162;45.926;13.608;2024-03-23T12:11:16;18.20;88.60
52189;DHT22;38162;45.926;13.608;2024-03-23T12:13:43;18.20;88.80
52189;DHT22;38162;45.926;13.608;2024-03-23T12:16:18;18.10;89.60
52189;DHT22;38162;45.926;13.608;2024-03-23T12:18:47;18.10;90.90
52189;DHT22;38162;45.926;13.608;2024-03-23T12:21:17;18.00;91.30
52189;DHT22;38162;45.926;13.608;2024-03-23T12:23:43;18.00;91.50
52189;DHT22;38162;45.926;13.608;2024-03-23T12:26:12;18.00;91.30
52189;DHT22;38162;45.926;13.608;2024-03-23T12:28:40;18.00;91.40
52189;DHT22;38162;45.926;13.608;2024-03-23T12:31:08;18.00;91.80
52189;DHT22;38162;45.926;13.608;2024-03-23T12:33:43;18.00;92.30
52189;DHT22;38162;45.926;13.608;2024-03-23T12:36:10;17.90;92.40
52189;DHT22;38162;45.926;13.608;2024-03-23T12:38:35;18.00;93.20
52189;DHT22;38162;45.926;13.608;2024-03-23T12:41:01;17.90;90.30
52189;DHT22;38162;45.926;13.608;2024-03-23T12:43:29;18.00;90.50
52189;DHT22;38162;45.926;13.608;2024-03-23T12:45:55;17.90;90.00
52189;DHT22;38162;45.926;13.608;2024-03-23T12:48:21;17.90;89.90
52189;DHT22;38162;45.926;13.608;2024-03-23T12:50:49;17.90;90.30
52189;DHT22;38162;45.926;13.608;2024-03-23T12:53:20;17.90;89.70
52189;DHT22;38162;45.926;13.608;2024-03-23T12:55:50;17.90;87.40
52189;DHT22;38162;45.926;13.608;2024-03-23T12:58:16;18.00;85.90
52189;DHT22;38162;45.926;13.608;2024-03-23T13:00:42;18.00;87.20
52189;DHT22;38162;45.926;13.608;2024-03-23T13:03:13;18.00;88.00
52189;DHT22;38162;45.926;13.608;2024-03-23T13:05:41;18.10;90.00
52189;DHT22;38162;45.926;13.608;2024-03-23T13:08:06;18.10;90.60
52189;DHT22;38162;45.926;13.608;2024-03-23T13:10:33;18.20;90.60
52189;DHT22;38162;45.926;13.608;2024-03-23T13:12:58;18.30;90.70
52189;DHT22;38162;45.926;13.608;2024-03-23T13:15:24;18.40;90.20
52189;DHT22;38162;45.926;13.608;2024-03-23T13:17:50;18.40;87.30
52189;DHT22;38162;45.926;13.608;2024-03-23T13:20:17;18.50;86.70
52189;DHT22;38162;45.926;13.608;2024-03-23T13:22:43;18.50;87.30
52189;DHT22;38162;45.926;13.608;2024-03-23T13:25:09;18.50;88.30
52189;DHT22;38162;45.926;13.608;2024-03-23T13:27:34;18.50;88.10
52189;DHT22;38162;45.926;13.608;2024-03-23T13:30:00;18.50;88.90
52189;DHT22;38162;45.926;13.608;2024-03-23T13:32:27;18.60;88.70
52189;DHT22;38162;45.926;13.608;2024-03-23T13:34:52;18.60;89.00
52189;DHT22;38162;45.926;13.608;2024-03-23T13:37:18;18.60;90.30
52189;DHT22;38162;45.926;13.608;2024-03-23T13:39:44;18.60;90.30
52189;DHT22;38162;45.926;13.608;2024-03-23T13:42:09;18.70;90.30
52189;DHT22;38162;45.926;13.608;2024-03-23T13:44:37;18.70;90.20
52189;DHT22;38162;45.926;13.608;2024-03-23T13:47:03;18.70;88.40
52189;DHT22;38162;45.926;13.608;2024-03-23T13:49:30;18.70;88.80
52189;DHT22;38162;45.926;13.608;2024-03-23T13:51:58;18.80;90.60
52189;DHT22;38162;45.926;13.608;2024-03-23T13:54:24;18.80;89.30
52189;DHT22;38162;45.926;13.608;2024-03-23T13:56:55;18.80;89.60
52189;DHT22;38162;45.926;13.608;2024-03-23T13:59:22;18.80;90.20
52189;DHT22;38162;45.926;13.608;2024-03-23T14:01:51;18.80;90.20
52189;DHT22;38162;45.926;13.608;2024-03-23T14:04:34;18.80;90.40
52189;DHT22;38162;45.926;13.608;2024-03-23T14:07:10;18.80;90.60
52189;DHT22;38162;45.926;13.608;2024-03-23T14:09:38;18.70;91.30
52189;DHT22;38162;45.926;13.608;2024-03-23T14:12:21;18.60;90.60
52189;DHT22;38162;45.926;13.608;2024-03-23T14:14:54;18.60;90.60
52189;DHT22;38162;45.926;13.608;2024-03-23T14:17:29;18.60;90.40
52189;DHT22;38162;45.926;13.608;2024-03-23T14:19:55;18.50;90.20
52189;DHT22;38162;45.926;13.608;2024-03-23T14:22:21;18.50;89.90
52189;DHT22;38162;45.926;13.608;2024-03-23T14:24:57;18.40;88.40
52189;DHT22;38162;45.926;13.608;2024-03-23T14:27:28;18.30;88.60
52189;DHT22;38162;45.926;13.608;2024-03-23T14:29:57;18.30;86.20
52189;DHT22;38162;45.926;13.608;2024-03-23T14:32:23;18.20;85.30
52189;DHT22;38162;45.926;13.608;2024-03-23T14:34:49;18.10;86.80
52189;DHT22;38162;45.926;13.608;2024-03-23T14:37:15;18.10;86.20
52189;DHT22;38162;45.926;13.608;2024-03-23T14:39:42;18.10;85.10
52189;DHT22;38162;45.926;13.608;2024-03-23T14:42:07;17.90;85.50
52189;DHT22;38162;45.926;13.608;2024-03-23T14:44:36;17.90;85.60
52189;DHT22;38162;45.926;13.608;2024-03-23T14:47:02;17.90;86.90
52189;DHT22;38162;45.926;13.608;2024-03-23T14:49:28;17.90;88.40
52189;DHT22;38162;45.926;13.608;2024-03-23T14:51:53;17.90;89.20
52189;DHT22;38162;45.926;13.608;2024-03-23T14:54:19;17.90;90.20
52189;DHT22;38162;45.926;13.608;2024-03-23T14:56:45;17.80;89.70
52189;DHT22;38162;45.926;13.608;2024-03-23T14:59:12;17.80;89.40
52189;DHT22;38162;45.926;13.608;2024-03-23T15:01:38;17.80;90.10
52189;DHT22;38162;45.926;13.608;2024-03-23T15:04:04;17.80;86.70
52189;DHT22;38162;45.926;13.608;2024-03-23T15:06:30;17.80;87.80
52189;DHT22;38162;45.926;13.608;2024-03-23T15:08:56;17.70;87.50
52189;DHT22;38162;45.926;13.608;2024-03-23T15:11:21;17.70;87.70
52189;DHT22;38162;45.926;13.608;2024-03-23T15:13:49;17.70;86.90
52189;DHT22;38162;45.926;13.608;2024-03-23T15:16:19;17.70;86.40
52189;DHT22;38162;45.926;13.608;2024-03-23T15:18:47;17.60;85.80
52189;DHT22;38162;45.926;13.608;2024-03-23T15:21:14;17.50;85.10
52189;DHT22;38162;45.926;13.608;2024-03-23T15:23:45;17.50;85.50
52189;DHT22;38162;45.926;13.608;2024-03-23T15:26:11;17.40;85.10
52189;DHT22;38162;45.926;13.608;2024-03-23T15:28:37;17.40;86.00
52189;DHT22;38162;45.926;13.608;2024-03-23T15:31:28;17.40;86.80
52189;DHT22;38162;45.926;13.608;2024-03-23T15:33:57;17.40;88.30
52189;DHT22;38162;45.926;13.608;2024-03-23T15:36:26;17.40;88.60
52189;DHT22;38162;45.926;13.608;2024-03-23T15:38:51;17.40;89.00
52189;DHT22;38162;45.926;13.608;2024-03-23T15:41:25;17.30;89.00
52189;DHT22;38162;45.926;13.608;2024-03-23T15:43:54;17.30;88.80
52189;DHT22;38162;45.926;13.608;2024-03-23T15:46:27;17.30;88.60
52189;DHT22;38162;45.926;13.608;2024-03-23T15:49:06;17.30;88.90
52189;DHT22;38162;45.926;13.608;2024-03-23T15:51:32;17.20;88.30
52189;DHT22;38162;45.926;13.608;2024-03-23T15:54:02;17.30;87.50
52189;DHT22;38162;45.926;13.608;2024-03-23T15:56:36;17.20;86.50
52189;DHT22;38162;45.926;13.608;2024-03-23T15:59:05;17.20;87.40
52189;DHT22;38162;45.926;13.608;2024-03-23T16:01:38;17.10;87.20
52189;DHT22;38162;45.926;13.608;2024-03-23T16:04:04;17.10;87.60
52189;DHT22;38162;45.926;13.608;2024-03-23T16:06:30;17.10;87.00
52189;DHT22;38162;45.926;13.608;2024-03-23T16:08:56;17.20;86.70
52189;DHT22;38162;45.926;13.608;2024-03-23T16:11:22;17.20;86.40
52189;DHT22;38162;45.926;13.608;2024-03-23T16:13:50;17.20;86.30
52189;DHT22;38162;45.926;13.608;2024-03-23T16:16:19;17.10;87.10
52189;DHT22;38162;45.926;13.608;2024-03-23T16:18:48;17.20;86.70
52189;DHT22;38162;45.926;13.608;2024-03-23T16:21:13;17.20;87.10
52189;DHT22;38162;45.926;13.608;2024-03-23T16:23:39;17.10;87.50
52189;DHT22;38162;45.926;13.608;2024-03-23T16:26:07;17.10;87.80
52189;DHT22;38162;45.926;13.608;2024-03-23T16:28:34;17.10;88.50
52189;DHT22;38162;45.926;13.608;2024-03-23T16:31:02;17.20;89.00
52189;DHT22;38162;45.926;13.608;2024-03-23T16:33:29;17.20;88.80
52189;DHT22;38162;45.926;13.608;2024-03-23T16:36:03;17.30;88.20
52189;DHT22;38162;45.926;13.608;2024-03-23T16:38:34;17.30;88.90
52189;DHT22;38162;45.926;13.608;2024-03-23T16:41:05;17.30;88.00
52189;DHT22;38162;45.926;13.608;2024-03-23T16:43:32;17.30;87.70
52189;DHT22;38162;45.926;13.608;2024-03-23T16:46:00;17.30;87.10
52189;DHT22;38162;45.926;13.608;2024-03-23T16:48:28;17.30;87.90
52189;DHT22;38162;45.926;13.608;2024-03-23T16:50:56;17.30;87.70
52189;DHT22;38162;45.926;13.608;2024-03-23T16:53:22;17.30;88.00
52189;DHT22;38162;45.926;13.608;2024-03-23T16:55:57;17.30;87.40
52189;DHT22;38162;45.926;13.608;2024-03-23T16:58:27;17.40;87.50
52189;DHT22;38162;45.926;13.608;2024-03-23T17:00:53;17.30;87.70
52189;DHT22;38162;45.926;13.608;2024-03-23T17:03:25;17.30;88.30
52189;DHT22;38162;45.926;13.608;2024-03-23T17:05:51;17.30;88.90
52189;DHT22;38162;45.926;13.608;2024-03-23T17:08:17;17.30;88.10
52189;DHT22;38162;45.926;13.608;2024-03-23T17:10:43;17.30;88.30
52189;DHT22;38162;45.926;13.608;2024-03-23T17:13:09;17.30;87.80
52189;DHT22;38162;45.926;13.608;2024-03-23T17:15:55;17.40;86.70
52189;DHT22;38162;45.926;13.608;2024-03-23T17:18:20;17.40;86.70
52189;DHT22;38162;45.926;13.608;2024-03-23T17:20:46;17.40;86.50
52189;DHT22;38162;45.926;13.608;2024-03-23T17:23:12;17.50;86.50
52189;DHT22;38162;45.926;13.608;2024-03-23T17:25:49;17.40;86.50
52189;DHT22;38162;45.926;13.608;2024-03-23T17:45:54;17.30;88.30
52189;DHT22;38162;45.926;13.608;2024-03-23T17:48:26;17.30;88.40
52189;DHT22;38162;45.926;13.608;2024-03-23T17:51:27;17.20;88.10
52189;DHT22;38162;45.926;13.608;2024-03-23T17:53:55;17.30;88.70
52189;DHT22;38162;45.926;13.608;2024-03-23T17:56:24;17.20;88.90